Time;durP1;ratioP1;P1;durP2;ratioP2;P2;SDS_P1;SDS_P2;PMS_P1;PMS_P2;Temp;Humidity;BMP_temperature;BMP_pressure;BME280_temperature;BME280_humidity;BME280_pressure;Samples;Min_cycle;Max_cycle;Signal;HPM_P1;HPM_P2
2021/06/02 00:00:45;;;;;;;12.13;5.30;;;9.80;99.90;;;;;;4110212;28;20455;-64
2021/06/02 00:02:48;;;;;;;7.20;4.97;;;9.90;99.90;;;;;;4122738;28;20042;-64
2021/06/02 00:04:51;;;;;;;11.63;5.97;;;9.80;99.90;;;;;;4116981;28;20038;-64
2021/06/02 00:06:57;;;;;;;7.53;3.90;;;9.80;99.90;;;;;;4121550;28;20038;-63
2021/06/02 00:08:59;;;;;;;12.53;7.80;;;9.80;99.90;;;;;;4108392;28;20155;-63
2021/06/02 00:11:04;;;;;;;11.80;5.37;;;9.70;99.90;;;;;;4106739;28;20089;-63
2021/06/02 00:13:08;;;;;;;10.17;5.33;;;9.70;99.90;;;;;;4125801;28;20430;-63
2021/06/02 00:15:11;;;;;;;9.17;5.40;;;9.70;99.90;;;;;;4125127;28;20023;-63
2021/06/02 00:17:12;;;;;;;7.80;4.90;;;9.70;99.90;;;;;;4115300;28;20105;-62
2021/06/02 00:19:15;;;;;;;11.73;5.87;;;9.70;99.90;;;;;;4108559;28;20443;-63
2021/06/02 00:21:16;;;;;;;10.77;6.20;;;9.70;99.90;;;;;;4109476;28;20050;-63
2021/06/02 00:23:18;;;;;;;9.27;5.40;;;9.70;99.90;;;;;;4108898;28;20101;-63
2021/06/02 00:25:19;;;;;;;7.40;4.70;;;9.70;99.90;;;;;;4109199;28;20478;-63
2021/06/02 00:27:20;;;;;;;6.97;4.80;;;9.70;99.90;;;;;;4113574;28;20030;-63
2021/06/02 00:29:26;;;;;;;9.00;4.63;;;9.70;99.90;;;;;;4125838;28;20462;-63
2021/06/02 00:31:27;;;;;;;4.63;2.97;;;9.70;99.90;;;;;;4123635;28;20930;-64
2021/06/02 00:33:31;;;;;;;7.60;4.30;;;9.80;99.90;;;;;;4102116;28;20483;-62
2021/06/02 00:35:33;;;;;;;6.73;4.10;;;9.70;99.90;;;;;;4119586;28;20030;-63
2021/06/02 00:37:35;;;;;;;8.07;4.00;;;9.70;99.90;;;;;;4108730;28;20030;-63
2021/06/02 00:39:36;;;;;;;5.50;3.03;;;9.70;99.90;;;;;;4111562;28;20042;-63
2021/06/02 00:41:42;;;;;;;5.97;3.80;;;9.70;99.90;;;;;;4124668;28;20022;-63
2021/06/02 00:43:43;;;;;;;5.67;2.50;;;9.70;99.90;;;;;;4117716;28;20035;-63
2021/06/02 00:45:48;;;;;;;8.23;3.87;;;9.70;99.90;;;;;;4107964;28;20042;-63
2021/06/02 00:47:49;;;;;;;5.43;3.10;;;9.70;99.90;;;;;;4108596;28;20086;-64
2021/06/02 00:49:51;;;;;;;5.43;2.53;;;9.60;99.90;;;;;;4109053;28;20035;-63
2021/06/02 00:52:01;;;;;;;5.57;3.70;;;9.60;99.90;;;;;;4109738;28;20038;-64
2021/06/02 00:54:04;;;;;;;5.57;3.33;;;9.60;99.90;;;;;;4111980;28;20014;-64
2021/06/02 00:56:07;;;;;;;4.40;2.97;;;9.60;99.90;;;;;;4107986;28;20097;-63
2021/06/02 00:58:12;;;;;;;6.40;2.80;;;9.60;99.90;;;;;;4108194;28;20019;-63
2021/06/02 01:00:15;;;;;;;3.53;2.43;;;9.60;99.90;;;;;;4109055;28;20056;-63
2021/06/02 01:02:21;;;;;;;2.73;2.10;;;9.60;99.90;;;;;;4107310;28;20039;-63
2021/06/02 01:04:24;;;;;;;3.73;2.63;;;9.50;99.90;;;;;;4111677;28;20038;-63
2021/06/02 01:06:27;;;;;;;5.60;2.20;;;9.50;99.90;;;;;;4114165;28;20113;-63
2021/06/02 01:08:29;;;;;;;3.67;2.57;;;9.50;99.90;;;;;;4107703;28;20046;-63
2021/06/02 01:10:31;;;;;;;4.07;2.40;;;9.40;99.90;;;;;;4107981;28;20069;-63
2021/06/02 01:12:32;;;;;;;7.40;3.10;;;9.40;99.90;;;;;;4108457;28;20098;-64
2021/06/02 01:14:35;;;;;;;3.93;1.97;;;9.40;99.90;;;;;;4108328;28;20133;-64
2021/06/02 01:16:37;;;;;;;4.33;2.20;;;9.30;99.90;;;;;;4108265;28;20137;-63
2021/06/02 01:18:39;;;;;;;2.27;2.00;;;9.20;99.90;;;;;;4108423;28;20030;-64
2021/06/02 01:20:41;;;;;;;2.23;2.03;;;9.20;99.90;;;;;;4107352;28;20051;-63
2021/06/02 01:22:43;;;;;;;3.10;2.20;;;9.10;99.90;;;;;;4108196;28;20046;-64
2021/06/02 01:24:44;;;;;;;3.70;2.20;;;9.10;99.90;;;;;;4107853;28;20031;-63
2021/06/02 01:26:51;;;;;;;3.70;1.93;;;9.00;99.90;;;;;;4114796;28;20714;-63
2021/06/02 01:28:53;;;;;;;3.37;1.80;;;9.00;99.90;;;;;;4123467;28;20096;-63
2021/06/02 01:30:55;;;;;;;6.13;2.20;;;9.00;99.90;;;;;;4124987;28;20034;-62
2021/06/02 01:33:35;;;;;;;3.13;2.10;;;8.90;99.90;;;;;;4105280;28;20054;-63
2021/06/02 01:36:06;;;;;;;3.25;2.20;;;8.90;99.90;;;;;;4100926;28;20046;-63
2021/06/02 01:38:32;;;;;;;5.37;2.10;;;8.80;99.90;;;;;;4107965;28;20042;-63
2021/06/02 01:40:57;;;;;;;8.43;2.37;;;8.80;99.90;;;;;;4107626;28;20499;-63
2021/06/02 01:43:16;;;;;;;2.63;1.90;;;8.80;99.90;;;;;;4108293;28;20035;-62
2021/06/02 01:45:17;;;;;;;5.30;2.57;;;8.70;99.90;;;;;;4114008;28;20054;-63
2021/06/02 01:47:24;;;;;;;3.10;1.70;;;8.70;99.90;;;;;;4124058;28;20069;-63
2021/06/02 01:50:03;;;;;;;3.73;2.13;;;8.70;99.90;;;;;;4123284;28;20554;-63
2021/06/02 01:52:33;;;;;;;4.70;1.67;;;8.70;99.90;;;;;;4123030;28;20043;-63
2021/06/02 01:55:00;;;;;;;4.85;1.98;;;8.60;99.90;;;;;;4110096;28;20658;-63
2021/06/02 01:57:07;;;;;;;11.23;2.63;;;8.60;99.90;;;;;;4123537;28;20222;-63
2021/06/02 01:59:35;;;;;;;3.50;2.10;;;8.60;99.90;;;;;;4122713;28;20030;-62
2021/06/02 02:01:48;;;;;;;2.87;1.70;;;8.60;99.90;;;;;;4118030;28;20058;-66
2021/06/02 02:04:30;;;;;;;4.83;2.30;;;8.50;99.90;;;;;;4107055;28;20586;-63
2021/06/02 02:07:09;;;;;;;3.67;1.80;;;8.50;99.90;;;;;;4111707;28;20042;-64
2021/06/02 02:09:19;;;;;;;3.60;1.80;;;8.60;99.90;;;;;;4124109;28;20030;-63
2021/06/02 02:11:34;;;;;;;5.38;2.17;;;8.60;99.90;;;;;;4122348;28;20034;-63
2021/06/02 02:14:20;;;;;;;5.57;1.93;;;8.60;99.90;;;;;;4107573;28;20035;-63
2021/06/02 02:16:48;;;;;;;7.03;2.17;;;8.50;99.90;;;;;;4077845;28;20109;-63
2021/06/02 02:19:11;;;;;;;2.53;1.80;;;8.60;99.90;;;;;;4107366;28;20031;-64
2021/06/02 02:21:40;;;;;;;3.70;1.67;;;8.50;99.90;;;;;;4109037;28;20119;-62
2021/06/02 02:23:58;;;;;;;1.90;1.43;;;8.50;99.90;;;;;;4105775;28;20046;-63
2021/06/02 02:26:29;;;;;;;2.77;1.53;;;8.50;99.90;;;;;;4113663;28;20773;-63
2021/06/02 02:28:53;;;;;;;3.60;1.93;;;8.50;99.90;;;;;;4107148;28;20109;-64
2021/06/02 02:31:00;;;;;;;2.43;1.50;;;8.50;99.90;;;;;;4107410;28;20463;-63
2021/06/02 02:33:20;;;;;;;5.23;1.43;;;8.50;99.90;;;;;;4107547;28;20050;-64
2021/06/02 02:35:45;;;;;;;6.20;1.57;;;8.50;99.90;;;;;;4115275;28;20030;-63
2021/06/02 02:38:09;;;;;;;2.33;1.80;;;8.50;99.90;;;;;;4089711;28;20043;-64
2021/06/02 02:40:58;;;;;;;2.43;1.80;;;8.50;99.90;;;;;;4107650;28;20470;-63
2021/06/02 02:43:06;;;;;;;2.97;1.77;;;8.50;99.90;;;;;;4041783;29;20872;-63
2021/06/02 02:45:08;;;;;;;2.40;1.23;;;8.50;99.90;;;;;;4106539;28;20499;-64
2021/06/02 02:47:35;;;;;;;2.30;1.63;;;8.50;99.90;;;;;;4106716;28;20027;-63
2021/06/02 02:49:55;;;;;;;3.43;1.50;;;8.50;99.90;;;;;;4107246;28;20057;-63
2021/06/02 02:52:08;;;;;;;2.55;2.30;;;8.50;99.90;;;;;;4106891;28;20097;-64
2021/06/02 02:54:38;;;;;;;21.40;2.07;;;8.50;99.90;;;;;;4106792;28;20051;-63
2021/06/02 02:57:02;;;;;;;3.33;1.65;;;8.50;99.90;;;;;;4102438;28;20754;-63
2021/06/02 02:59:28;;;;;;;3.87;1.63;;;8.50;99.90;;;;;;4106332;28;20043;-64
2021/06/02 03:01:47;;;;;;;4.43;1.67;;;8.40;99.90;;;;;;4108141;28;20052;-64
2021/06/02 03:04:03;;;;;;;1.77;1.67;;;8.40;99.90;;;;;;4088812;28;20063;-64
2021/06/02 03:06:25;;;;;;;4.20;1.80;;;8.50;99.90;;;;;;4112131;28;20713;-64
2021/06/02 03:08:40;;;;;;;4.17;1.70;;;8.50;99.90;;;;;;4122781;28;20086;-63
2021/06/02 03:10:54;;;;;;;3.80;1.63;;;8.50;99.90;;;;;;4123149;28;20034;-62
2021/06/02 03:13:08;;;;;;;4.73;2.17;;;8.40;99.90;;;;;;4122171;28;20089;-63
2021/06/02 03:15:30;;;;;;;6.43;2.47;;;8.50;99.90;;;;;;4122709;28;20069;-62
2021/06/02 03:18:06;;;;;;;5.90;2.07;;;8.50;99.90;;;;;;4105332;28;20031;-63
2021/06/02 03:20:15;;;;;;;2.83;2.00;;;8.50;99.90;;;;;;4079208;28;20461;-63
2021/06/02 03:22:30;;;;;;;6.17;3.17;;;8.50;99.90;;;;;;4118986;28;20030;-65
2021/06/02 03:25:08;;;;;;;5.20;2.67;;;8.60;99.90;;;;;;4119216;28;20477;-64
2021/06/02 03:27:12;;;;;;;6.67;2.87;;;8.60;99.90;;;;;;4108391;28;20113;-63
2021/06/02 03:29:28;;;;;;;6.80;2.63;;;8.50;99.90;;;;;;4109437;28;20031;-65
2021/06/02 03:31:55;;;;;;;5.00;3.17;;;8.60;99.90;;;;;;4122033;28;20438;-64
2021/06/02 03:34:05;;;;;;;4.73;2.97;;;8.60;99.90;;;;;;4114058;28;20403;-63
2021/06/02 03:36:30;;;;;;;2.92;1.65;;;8.60;99.90;;;;;;4115602;28;20043;-64
2021/06/02 03:39:01;;;;;;;5.57;3.10;;;8.60;99.90;;;;;;4108919;28;20047;-63
2021/06/02 03:41:13;;;;;;;7.40;2.00;;;8.60;99.90;;;;;;4083715;28;20049;-63
2021/06/02 03:43:29;;;;;;;3.60;1.60;;;8.60;99.90;;;;;;4125161;28;20026;-64
2021/06/02 03:45:30;;;;;;;5.77;1.90;;;8.70;99.90;;;;;;4125885;28;20030;-63
2021/06/02 03:48:12;;;;;;;13.07;2.60;;;8.70;99.90;;;;;;4123609;28;20153;-64
2021/06/02 03:50:25;;;;;;;3.20;2.47;;;8.80;99.90;;;;;;4125653;28;20034;-63
2021/06/02 03:52:48;;;;;;;5.07;2.30;;;8.80;99.90;;;;;;4111956;28;20117;-62
2021/06/02 03:54:59;;;;;;;4.13;2.57;;;8.80;99.90;;;;;;4109295;28;20399;-63
2021/06/02 03:57:25;;;;;;;3.30;1.97;;;8.80;99.90;;;;;;4117168;28;20038;-63
2021/06/02 03:59:32;;;;;;;3.40;2.30;;;8.80;99.90;;;;;;4107151;28;20109;-63
2021/06/02 04:01:54;;;;;;;7.47;2.10;;;8.90;99.90;;;;;;4116183;28;20031;-63
2021/06/02 04:04:05;;;;;;;4.77;2.30;;;8.90;99.90;;;;;;4108343;28;20750;-64
2021/06/02 04:06:32;;;;;;;9.18;1.92;;;9.00;99.90;;;;;;4109170;28;20068;-64
2021/06/02 04:08:43;;;;;;;5.97;2.10;;;9.00;99.90;;;;;;4108540;28;20035;-64
2021/06/02 04:10:45;;;;;;;3.20;2.40;;;9.10;99.90;;;;;;4109310;28;20482;-64
2021/06/02 04:12:52;;;;;;;6.27;2.43;;;9.10;99.90;;;;;;4108551;28;20035;-63
2021/06/02 04:14:56;;;;;;;6.27;2.20;;;9.10;99.90;;;;;;4109334;28;21021;-63
2021/06/02 04:16:58;;;;;;;7.30;2.20;;;9.10;99.90;;;;;;4122793;28;20038;-63
2021/06/02 04:19:03;;;;;;;3.63;2.17;;;9.10;99.90;;;;;;4125508;28;20478;-63
2021/06/02 04:21:05;;;;;;;3.53;2.03;;;9.20;99.90;;;;;;4123992;28;20054;-63
2021/06/02 04:23:06;;;;;;;2.57;1.37;;;9.20;99.90;;;;;;4107070;28;20042;-64
2021/06/02 04:25:09;;;;;;;2.03;1.73;;;9.20;99.90;;;;;;4124039;28;20089;-63
2021/06/02 04:27:13;;;;;;;4.63;2.00;;;9.30;99.90;;;;;;4124850;28;20030;-63
2021/06/02 04:29:16;;;;;;;4.43;1.87;;;9.30;99.90;;;;;;4124322;28;20855;-64
2021/06/02 04:31:20;;;;;;;4.47;2.10;;;9.40;99.90;;;;;;4124865;28;20018;-64
2021/06/02 04:33:25;;;;;;;5.90;2.13;;;9.40;99.90;;;;;;4122929;28;20042;-64
2021/06/02 04:35:26;;;;;;;3.47;2.20;;;9.50;99.90;;;;;;4123289;28;20490;-63
2021/06/02 04:37:28;;;;;;;5.07;1.87;;;9.50;99.90;;;;;;4124846;28;20442;-63
2021/06/02 04:39:30;;;;;;;2.83;1.90;;;9.40;99.90;;;;;;4123231;28;20038;-63
2021/06/02 04:41:32;;;;;;;4.27;1.80;;;9.40;99.90;;;;;;4124225;28;20039;-62
2021/06/02 04:43:39;;;;;;;8.27;2.57;;;9.40;99.90;;;;;;4123855;28;20376;-63
2021/06/02 04:45:58;;;;;;;6.87;2.20;;;9.40;99.90;;;;;;4124825;28;20038;-63
2021/06/02 04:48:01;;;;;;;7.40;2.27;;;9.40;99.90;;;;;;4123864;28;20042;-63
2021/06/02 04:50:18;;;;;;;4.77;1.90;;;9.40;99.90;;;;;;4123982;28;20101;-62
2021/06/02 04:52:21;;;;;;;5.77;1.90;;;9.40;99.90;;;;;;4121983;28;20038;-63
2021/06/02 04:54:47;;;;;;;4.80;2.13;;;9.50;99.90;;;;;;4113496;28;20100;-62
2021/06/02 04:57:00;;;;;;;4.80;2.20;;;9.60;99.90;;;;;;4120837;28;20069;-62
2021/06/02 04:59:13;;;;;;;6.57;1.97;;;9.70;99.90;;;;;;4108624;28;20022;-65
2021/06/02 05:02:01;;;;;;;5.40;2.67;;;9.70;99.90;;;;;;4107706;28;20038;-65
2021/06/02 05:04:44;;;;;;;5.50;2.50;;;9.80;99.90;;;;;;4072486;28;20117;-65
2021/06/02 05:07:23;;;;;;;8.13;2.30;;;9.90;99.90;;;;;;4108689;28;20043;-66
2021/06/02 05:09:46;;;;;;;5.70;2.30;;;10.10;99.90;;;;;;4072816;28;20051;-65
2021/06/02 05:12:24;;;;;;;6.43;2.43;;;10.20;99.90;;;;;;4091070;29;20147;-64
2021/06/02 05:14:37;;;;;;;7.13;2.23;;;10.30;99.90;;;;;;4107157;28;20179;-64
2021/06/02 05:16:41;;;;;;;3.33;1.90;;;10.50;99.90;;;;;;4108041;28;20101;-65
2021/06/02 05:19:15;;;;;;;6.70;2.80;;;10.60;99.90;;;;;;4107860;28;20041;-70
2021/06/02 05:24:22;;;;;;;6.27;2.17;;;10.80;99.90;;;;;;4108275;28;20046;-64
2021/06/02 05:26:54;;;;;;;7.00;2.33;;;10.90;99.90;;;;;;4107273;28;20081;-64
2021/06/02 05:29:07;;;;;;;6.83;2.10;;;10.90;99.90;;;;;;4108078;28;20062;-65
2021/06/02 05:31:26;;;;;;;3.97;2.00;;;11.00;99.90;;;;;;4107538;28;20117;-63
2021/06/02 05:33:46;;;;;;;4.75;2.30;;;11.20;99.90;;;;;;4108204;28;20086;-63
2021/06/02 05:36:04;;;;;;;4.87;2.00;;;11.30;99.90;;;;;;4089724;29;20035;-64
2021/06/02 05:38:42;;;;;;;6.53;1.67;;;11.50;99.90;;;;;;4108182;28;20039;-64
2021/06/02 05:41:04;;;;;;;6.37;1.87;;;11.70;99.90;;;;;;4107638;28;20549;-63
2021/06/02 05:43:32;;;;;;;3.97;1.87;;;12.00;99.90;;;;;;4107197;28;20034;-63
2021/06/02 05:46:19;;;;;;;2.17;1.60;;;12.50;99.90;;;;;;4090255;28;20122;-64
2021/06/02 05:48:57;;;;;;;3.83;1.60;;;12.90;99.90;;;;;;4106038;28;20090;-64
2021/06/02 05:51:18;;;;;;;7.57;2.13;;;13.30;99.90;;;;;;4107199;28;20550;-63
2021/06/02 05:53:25;;;;;;;5.65;2.13;;;13.50;99.90;;;;;;4107282;28;20247;-63
2021/06/02 05:55:49;;;;;;;4.57;2.00;;;13.70;99.90;;;;;;4107114;28;20086;-63
2021/06/02 05:58:08;;;;;;;4.87;1.77;;;13.80;99.90;;;;;;4107008;28;20042;-63
2021/06/02 06:00:27;;;;;;;3.07;1.60;;;14.00;99.90;;;;;;4107314;28;20086;-63
2021/06/02 06:02:52;;;;;;;9.83;4.00;;;14.20;99.90;;;;;;4107288;28;20443;-63
2021/06/02 06:05:32;;;;;;;7.27;3.30;;;14.30;99.90;;;;;;4106619;28;20069;-62
2021/06/02 06:08:05;;;;;;;4.50;1.85;;;14.30;99.90;;;;;;4090478;28;20491;-63
2021/06/02 06:10:18;;;;;;;6.00;1.70;;;14.60;99.90;;;;;;4106197;28;20113;-63
2021/06/02 06:12:43;;;;;;;7.03;1.57;;;14.80;99.90;;;;;;4107431;28;20081;-63
2021/06/02 06:15:18;;;;;;;6.93;2.27;;;14.70;99.90;;;;;;4106772;28;20089;-63
2021/06/02 06:17:24;;;;;;;6.30;1.70;;;15.00;99.90;;;;;;4106918;28;20089;-64
2021/06/02 06:19:34;;;;;;;9.37;2.10;;;15.20;99.90;;;;;;4106715;28;20035;-64
2021/06/02 06:22:13;;;;;;;9.70;2.40;;;15.70;99.90;;;;;;4106972;28;20491;-65
2021/06/02 06:24:37;;;;;;;6.70;1.70;;;16.30;99.90;;;;;;4106549;28;20062;-64
2021/06/02 06:26:47;;;;;;;4.17;2.00;;;16.60;99.90;;;;;;4106766;28;20159;-64
2021/06/02 06:29:22;;;;;;;8.43;2.30;;;17.10;99.90;;;;;;4107706;28;20171;-64
2021/06/02 06:31:30;;;;;;;6.30;2.13;;;17.20;99.90;;;;;;4106327;28;20034;-64
2021/06/02 06:33:33;;;;;;;6.40;2.27;;;17.10;99.90;;;;;;4107597;28;20043;-63
2021/06/02 06:35:40;;;;;;;5.30;2.10;;;17.00;99.90;;;;;;4106113;28;20031;-62
2021/06/02 06:37:53;;;;;;;14.95;2.55;;;17.00;99.90;;;;;;4106408;28;20039;-63
2021/06/02 06:39:57;;;;;;;5.28;2.00;;;16.90;99.90;;;;;;4106236;28;20483;-64
2021/06/02 06:41:59;;;;;;;4.30;1.80;;;17.20;99.90;;;;;;4107220;28;20077;-63
2021/06/02 06:44:03;;;;;;;6.28;2.10;;;17.40;99.90;;;;;;4106517;28;20033;-63
2021/06/02 06:46:05;;;;;;;5.47;1.92;;;17.40;99.90;;;;;;4106645;28;20552;-63
2021/06/02 06:48:21;;;;;;;5.68;1.50;;;17.60;99.90;;;;;;4105664;28;20097;-63
2021/06/02 06:50:22;;;;;;;3.50;1.73;;;17.50;99.90;;;;;;4107143;28;20081;-64
2021/06/02 06:52:27;;;;;;;3.47;1.80;;;17.40;99.90;;;;;;4106810;28;20146;-63
2021/06/02 06:54:31;;;;;;;3.67;1.50;;;17.40;99.90;;;;;;4110245;28;20101;-63
2021/06/02 06:56:34;;;;;;;1.63;1.48;;;17.50;99.90;;;;;;4109075;28;20077;-63
2021/06/02 06:58:36;;;;;;;8.25;2.03;;;17.70;99.90;;;;;;4110135;28;20912;-64
2021/06/02 07:00:39;;;;;;;5.47;1.73;;;18.00;99.90;;;;;;4109249;28;20078;-63
2021/06/02 07:02:42;;;;;;;3.55;1.60;;;18.10;99.90;;;;;;4110142;28;20034;-63
2021/06/02 07:04:44;;;;;;;4.22;1.50;;;18.40;99.30;;;;;;4110183;28;20364;-64
2021/06/02 07:06:47;;;;;;;6.57;2.45;;;18.70;98.50;;;;;;4109656;28;20551;-64
2021/06/02 07:08:50;;;;;;;6.75;1.55;;;19.10;98.10;;;;;;4109985;28;20035;-63
2021/06/02 07:10:51;;;;;;;4.57;1.50;;;19.40;97.30;;;;;;4109368;28;20077;-64
2021/06/02 07:12:52;;;;;;;2.78;1.40;;;19.60;96.70;;;;;;4110441;28;20082;-66
2021/06/02 07:14:54;;;;;;;3.97;1.75;;;19.50;96.20;;;;;;4109208;28;20086;-64
2021/06/02 07:17:04;;;;;;;3.03;1.23;;;19.40;95.40;;;;;;4109195;28;20109;-65
2021/06/02 07:19:07;;;;;;;1.85;1.27;;;19.50;95.00;;;;;;4109054;28;20846;-63
2021/06/02 07:21:08;;;;;;;3.08;1.20;;;19.50;94.30;;;;;;4109922;28;20778;-65
2021/06/02 07:23:10;;;;;;;3.20;1.50;;;19.60;93.70;;;;;;4108128;28;20499;-64
2021/06/02 07:25:17;;;;;;;2.17;1.27;;;19.60;92.00;;;;;;4109034;28;20087;-69
2021/06/02 07:27:18;;;;;;;2.35;1.13;;;19.60;91.20;;;;;;4108163;28;20448;-64
2021/06/02 07:29:20;;;;;;;5.13;1.23;;;19.90;90.90;;;;;;4109530;28;20891;-67
2021/06/02 07:31:21;;;;;;;2.78;0.73;;;20.20;89.80;;;;;;4109524;28;20030;-67
2021/06/02 07:33:22;;;;;;;4.50;1.00;;;20.40;87.90;;;;;;4109890;28;20034;-68
2021/06/02 07:35:24;;;;;;;2.75;1.20;;;20.50;86.60;;;;;;4109190;28;20026;-65
2021/06/02 07:37:25;;;;;;;2.33;1.17;;;20.40;86.00;;;;;;4109335;28;20027;-63
2021/06/02 07:39:26;;;;;;;2.80;1.15;;;20.20;85.30;;;;;;4109158;28;20031;-64
2021/06/02 07:41:27;;;;;;;3.17;1.40;;;20.10;84.20;;;;;;4108685;28;20149;-63
2021/06/02 07:43:29;;;;;;;2.63;0.93;;;20.00;80.20;;;;;;4109601;28;20042;-65
2021/06/02 07:45:30;;;;;;;2.47;0.82;;;19.70;79.20;;;;;;4109098;28;20910;-63
2021/06/02 07:47:31;;;;;;;2.35;1.33;;;19.80;79.40;;;;;;4109701;28;20039;-63
2021/06/02 07:49:34;;;;;;;3.92;1.88;;;19.70;77.60;;;;;;4108293;28;20105;-66
2021/06/02 07:51:36;;;;;;;12.88;2.00;;;19.30;77.50;;;;;;4109602;28;20039;-65
2021/06/02 07:53:37;;;;;;;4.57;1.00;;;19.10;77.90;;;;;;4108654;28;20027;-63
2021/06/02 07:55:38;;;;;;;4.75;1.38;;;18.40;77.80;;;;;;4109654;28;20438;-62
2021/06/02 07:57:39;;;;;;;3.70;1.58;;;18.10;80.10;;;;;;4108744;28;20067;-63
2021/06/02 07:59:40;;;;;;;3.92;1.50;;;17.90;80.50;;;;;;4109008;28;20039;-64
2021/06/02 08:01:43;;;;;;;3.92;1.40;;;17.70;81.50;;;;;;4108237;28;20481;-69
2021/06/02 08:03:44;;;;;;;6.03;1.20;;;17.70;82.90;;;;;;4107743;28;20479;-64
2021/06/02 08:05:45;;;;;;;3.63;1.50;;;17.70;82.20;;;;;;4107341;28;20110;-62
2021/06/02 08:07:47;;;;;;;2.45;1.65;;;18.00;82.60;;;;;;4108502;28;20043;-70
2021/06/02 08:09:50;;;;;;;6.18;2.40;;;17.90;82.40;;;;;;4107908;28;20479;-67
2021/06/02 08:11:51;;;;;;;5.03;1.92;;;17.80;83.20;;;;;;4109104;28;20764;-68
2021/06/02 08:13:52;;;;;;;1.42;1.15;;;17.40;83.70;;;;;;4108869;28;20038;-62
2021/06/02 08:15:54;;;;;;;1.52;0.73;;;17.20;84.90;;;;;;4090851;29;20047;-66
2021/06/02 08:17:55;;;;;;;3.75;1.10;;;17.20;85.90;;;;;;4108071;28;20042;-64
2021/06/02 08:19:56;;;;;;;5.00;2.55;;;17.10;86.30;;;;;;4107842;28;20027;-68
2021/06/02 08:21:57;;;;;;;10.38;1.60;;;17.10;87.30;;;;;;4108351;28;20109;-63
2021/06/02 08:23:59;;;;;;;6.70;1.77;;;17.00;87.40;;;;;;4108114;28;20877;-64
2021/06/02 08:26:00;;;;;;;8.65;2.20;;;16.80;88.50;;;;;;4109073;28;20113;-63
2021/06/02 08:28:01;;;;;;;0.93;0.88;;;16.90;89.50;;;;;;4107526;28;20515;-63
2021/06/02 08:30:05;;;;;;;0.82;0.80;;;16.90;89.20;;;;;;4109328;28;20070;-64
2021/06/02 08:32:07;;;;;;;4.40;1.02;;;17.00;88.10;;;;;;4090648;28;20103;-63
2021/06/02 08:34:08;;;;;;;5.03;1.20;;;17.10;87.80;;;;;;4108545;28;20700;-63
2021/06/02 08:36:10;;;;;;;5.18;2.08;;;17.10;87.80;;;;;;4107481;28;20051;-62
2021/06/02 08:38:12;;;;;;;1.77;1.20;;;16.90;86.40;;;;;;4106927;28;20494;-65
2021/06/02 08:40:14;;;;;;;3.58;1.30;;;16.90;87.00;;;;;;4108348;28;20031;-63
2021/06/02 08:42:16;;;;;;;1.73;1.30;;;16.70;86.10;;;;;;4108250;28;20027;-63
2021/06/02 08:44:21;;;;;;;1.98;0.77;;;16.70;87.20;;;;;;4108247;28;20027;-63
2021/06/02 08:46:22;;;;;;;3.63;1.00;;;16.70;87.10;;;;;;4108257;28;20097;-63
2021/06/02 08:48:24;;;;;;;2.53;1.27;;;16.60;87.20;;;;;;4108513;28;20587;-63
2021/06/02 08:50:25;;;;;;;2.55;1.20;;;16.60;87.90;;;;;;4107771;28;20042;-64
2021/06/02 08:52:26;;;;;;;5.32;2.22;;;16.70;87.50;;;;;;4108383;28;20090;-69
2021/06/02 08:54:28;;;;;;;10.52;1.40;;;16.70;87.50;;;;;;4106423;28;21020;-66
2021/06/02 08:56:29;;;;;;;7.60;1.30;;;16.60;87.20;;;;;;4108355;28;20038;-63
2021/06/02 08:58:30;;;;;;;10.75;2.00;;;16.60;87.50;;;;;;4107654;28;20699;-65
2021/06/02 09:00:31;;;;;;;10.63;1.50;;;16.60;87.20;;;;;;4108186;28;20547;-64
2021/06/02 09:02:32;;;;;;;12.80;2.90;;;16.50;88.00;;;;;;4107962;28;20043;-63
2021/06/02 09:04:34;;;;;;;2.17;0.82;;;16.70;89.30;;;;;;4108143;28;20053;-63
2021/06/02 09:06:47;;;;;;;6.40;2.22;;;16.70;87.70;;;;;;4106822;28;20389;-63
2021/06/02 09:08:49;;;;;;;8.23;1.10;;;16.60;85.70;;;;;;4108174;28;20077;-62
2021/06/02 09:10:50;;;;;;;17.85;2.50;;;16.50;85.80;;;;;;4107510;28;20074;-64
2021/06/02 09:12:59;;;;;;;15.70;2.25;;;16.60;85.80;;;;;;4107449;28;20085;-63
2021/06/02 09:15:11;;;;;;;2.97;1.55;;;16.70;85.70;;;;;;4106699;28;20047;-63
2021/06/02 09:17:15;;;;;;;2.10;0.82;;;17.10;82.80;;;;;;4106884;28;20198;-64
2021/06/02 09:19:55;;;;;;;2.65;0.85;;;17.20;81.60;;;;;;4106781;28;20043;-64
2021/06/02 09:21:57;;;;;;;6.05;1.40;;;17.20;77.70;;;;;;4065756;28;20046;-64
2021/06/02 09:23:58;;;;;;;2.20;0.73;;;17.30;79.90;;;;;;4107193;28;20798;-63
2021/06/02 09:26:12;;;;;;;3.97;1.17;;;17.40;79.10;;;;;;4107951;28;20082;-62
2021/06/02 09:28:13;;;;;;;4.18;1.17;;;17.30;79.30;;;;;;4107292;28;20506;-66
2021/06/02 09:30:31;;;;;;;2.60;0.98;;;17.20;79.80;;;;;;4107792;28;20435;-63
2021/06/02 09:32:50;;;;;;;5.45;1.35;;;17.30;79.20;;;;;;4107368;28;20180;-63
2021/06/02 09:35:00;;;;;;;4.18;1.38;;;17.60;79.20;;;;;;4106109;28;20050;-64
2021/06/02 09:37:04;;;;;;;2.78;1.02;;;18.00;78.10;;;;;;4106143;28;20043;-63
2021/06/02 09:39:09;;;;;;;2.55;0.60;;;18.20;77.30;;;;;;4089453;29;20106;-63
2021/06/02 09:41:13;;;;;;;3.88;0.95;;;18.40;76.30;;;;;;4105945;28;20442;-62
2021/06/02 09:43:31;;;;;;;2.95;1.30;;;18.50;75.30;;;;;;4107778;28;20082;-64
2021/06/02 09:45:34;;;;;;;5.65;0.90;;;18.60;71.70;;;;;;4106422;28;20089;-62
2021/06/02 09:47:47;;;;;;;5.30;1.50;;;18.20;72.40;;;;;;4106951;28;20091;-63
2021/06/02 09:49:55;;;;;;;3.45;1.13;;;18.10;73.00;;;;;;4106045;28;20031;-63
2021/06/02 09:51:56;;;;;;;3.80;0.93;;;18.30;72.40;;;;;;4107214;28;20023;-63
2021/06/02 09:53:59;;;;;;;4.03;0.82;;;18.40;72.20;;;;;;4106534;28;20468;-62
2021/06/02 09:56:00;;;;;;;2.42;1.10;;;18.40;70.80;;;;;;4107311;28;20077;-64
2021/06/02 09:58:01;;;;;;;3.80;0.73;;;18.40;70.00;;;;;;4106992;28;20093;-63
2021/06/02 10:00:05;;;;;;;3.92;1.10;;;18.50;69.40;;;;;;4107228;28;20451;-64
2021/06/02 10:02:15;;;;;;;2.45;0.90;;;18.60;68.50;;;;;;4089334;29;20031;-63
2021/06/02 10:04:16;;;;;;;9.90;1.10;;;18.50;64.90;;;;;;4106641;28;20071;-66
2021/06/02 10:06:17;;;;;;;6.38;0.70;;;18.40;66.50;;;;;;4106147;28;20043;-63
2021/06/02 10:08:25;;;;;;;2.28;1.00;;;18.10;65.90;;;;;;4106359;28;20089;-64
2021/06/02 10:10:27;;;;;;;20.20;3.08;;;17.70;66.20;;;;;;4106437;28;20395;-62
2021/06/02 10:12:28;;;;;;;3.42;0.70;;;17.60;66.70;;;;;;4106653;28;20059;-64
2021/06/02 10:14:30;;;;;;;3.40;1.00;;;17.30;65.50;;;;;;4107220;28;20481;-63
2021/06/02 10:16:35;;;;;;;4.45;0.88;;;17.10;66.30;;;;;;4106314;28;20318;-63
2021/06/02 10:18:39;;;;;;;3.95;1.15;;;17.00;65.50;;;;;;4107366;28;20039;-64
2021/06/02 10:20:58;;;;;;;2.40;1.08;;;16.90;65.80;;;;;;4105284;28;20054;-63
2021/06/02 10:23:00;;;;;;;7.22;2.58;;;16.80;64.90;;;;;;4106183;28;20879;-62
2021/06/02 10:25:05;;;;;;;7.20;1.10;;;16.70;65.60;;;;;;4106366;28;20039;-63
2021/06/02 10:27:07;;;;;;;1.98;0.88;;;16.80;66.00;;;;;;4107143;28;20094;-64
2021/06/02 10:29:08;;;;;;;6.05;1.58;;;16.80;66.10;;;;;;4106489;28;20078;-63
2021/06/02 10:31:12;;;;;;;3.83;1.00;;;16.90;66.60;;;;;;4107076;28;20073;-65
2021/06/02 10:33:13;;;;;;;6.13;1.52;;;17.00;66.20;;;;;;4106811;28;20047;-64
2021/06/02 10:35:15;;;;;;;9.60;1.58;;;17.00;65.70;;;;;;4106235;28;20038;-63
2021/06/02 10:37:17;;;;;;;5.30;1.23;;;17.00;65.80;;;;;;4106382;28;20027;-64
2021/06/02 10:39:20;;;;;;;5.82;1.23;;;17.20;67.10;;;;;;4106801;28;20081;-63
2021/06/02 10:41:42;;;;;;;5.55;1.52;;;17.20;67.40;;;;;;4105996;28;20042;-67
2021/06/02 10:43:48;;;;;;;4.68;1.52;;;17.30;67.00;;;;;;4106893;28;20031;-64
2021/06/02 10:46:02;;;;;;;1.48;0.90;;;17.40;67.70;;;;;;4106340;28;20712;-63
2021/06/02 10:48:05;;;;;;;5.22;1.02;;;17.20;68.20;;;;;;4106493;28;20026;-63
2021/06/02 10:50:26;;;;;;;1.45;0.77;;;17.00;68.10;;;;;;4105568;28;20039;-63
2021/06/02 10:52:42;;;;;;;7.55;1.38;;;17.00;68.40;;;;;;4107006;28;20427;-69
2021/06/02 10:54:43;;;;;;;4.72;0.90;;;17.10;69.40;;;;;;4106233;28;20519;-63
2021/06/02 10:57:06;;;;;;;3.25;1.75;;;17.40;68.80;;;;;;4106928;28;20458;-63
2021/06/02 10:59:27;;;;;;;2.80;1.02;;;17.70;68.10;;;;;;4106100;28;20101;-63
2021/06/02 11:01:32;;;;;;;3.83;0.93;;;18.00;64.60;;;;;;4107255;28;20078;-63
2021/06/02 11:03:38;;;;;;;4.00;1.10;;;18.00;65.90;;;;;;4106132;28;20042;-63
2021/06/02 11:05:39;;;;;;;6.07;1.42;;;17.90;65.40;;;;;;4107243;28;20042;-63
2021/06/02 11:07:52;;;;;;;4.35;1.00;;;17.90;65.90;;;;;;4105579;28;20047;-63
2021/06/02 11:10:00;;;;;;;4.13;1.52;;;17.80;64.20;;;;;;4106776;28;20458;-63
2021/06/02 11:12:03;;;;;;;7.70;1.60;;;17.60;66.40;;;;;;4105511;28;20074;-64
2021/06/02 11:16:37;;;;;;;9.85;1.88;;;17.70;66.40;;;;;;4106356;28;20039;-67
2021/06/02 11:18:38;;;;;;;4.10;1.20;;;17.60;68.00;;;;;;4106506;28;20578;-64
2021/06/02 11:20:51;;;;;;;8.77;1.95;;;17.70;68.40;;;;;;4105472;28;20066;-64
2021/06/02 11:23:05;;;;;;;6.65;1.90;;;17.80;68.60;;;;;;4106203;28;20046;-64
2021/06/02 11:25:21;;;;;;;2.92;1.40;;;17.90;68.20;;;;;;4105706;28;20042;-63
2021/06/02 11:27:22;;;;;;;2.72;0.93;;;18.20;68.20;;;;;;4105841;28;20175;-63